Time;durP1;ratioP1;P1;durP2;ratioP2;P2;SDS_P1;SDS_P2;PMS_P1;PMS_P2;Temp;Humidity;BMP_temperature;BMP_pressure;BME280_temperature;BME280_humidity;BME280_pressure;Samples;Min_cycle;Max_cycle;Signal;HPM_P1;HPM_P2
2022/12/12 00:02:17;;;;;;;37.60;4.22;;;;;;;;;;5035008;28;20033;-47
2022/12/12 00:04:44;;;;;;;30.73;3.47;;;;;;;;;;5033924;28;20570;-48
2022/12/12 00:07:11;;;;;;;26.20;3.78;;;;;;;;;;5034922;28;20060;-46
2022/12/12 00:09:38;;;;;;;132.68;11.88;;;;;;;;;;5034563;28;20474;-47
2022/12/12 00:12:05;;;;;;;200.35;18.45;;;;;;;;;;5034184;28;20027;-46
2022/12/12 00:14:32;;;;;;;121.10;12.43;;;;;;;;;;5036704;28;20040;-47
2022/12/12 00:16:59;;;;;;;124.22;12.25;;;;;;;;;;5046998;28;20037;-46
2022/12/12 00:19:26;;;;;;;132.57;11.57;;;;;;;;;;5041864;28;20456;-54
2022/12/12 00:21:53;;;;;;;184.82;18.35;;;;;;;;;;5044295;28;20021;-48
2022/12/12 00:24:20;;;;;;;278.42;24.63;;;;;;;;;;5043620;28;20042;-51
2022/12/12 00:26:47;;;;;;;291.17;26.92;;;;;;;;;;5041644;28;20056;-47
2022/12/12 00:29:14;;;;;;;282.92;27.60;;;;;;;;;;5044879;28;20029;-47
2022/12/12 00:31:41;;;;;;;251.98;26.85;;;;;;;;;;5045509;28;20025;-48
2022/12/12 00:34:08;;;;;;;231.40;23.92;;;;;;;;;;5044045;28;20036;-48
2022/12/12 00:36:35;;;;;;;244.77;25.92;;;;;;;;;;5043520;28;20033;-46
2022/12/12 00:39:02;;;;;;;237.75;24.48;;;;;;;;;;5041857;28;20044;-47
2022/12/12 00:41:29;;;;;;;242.15;27.02;;;;;;;;;;5033770;28;20049;-47
2022/12/12 00:43:57;;;;;;;284.65;29.85;;;;;;;;;;5015984;28;20029;-46
2022/12/12 00:46:24;;;;;;;263.58;31.25;;;;;;;;;;5033460;28;20025;-47
2022/12/12 00:48:54;;;;;;;283.67;32.92;;;;;;;;;;5032814;28;20403;-49
2022/12/12 00:51:21;;;;;;;346.67;39.80;;;;;;;;;;5033882;28;20060;-47
2022/12/12 00:53:49;;;;;;;308.02;36.85;;;;;;;;;;5033290;28;20040;-49
2022/12/12 00:56:16;;;;;;;278.15;34.97;;;;;;;;;;5035780;28;20037;-46
2022/12/12 00:58:43;;;;;;;319.20;36.72;;;;;;;;;;5033938;28;20033;-47
2022/12/12 01:01:16;;;;;;;284.30;36.67;;;;;;;;;;5033685;28;20124;-46
2022/12/12 01:03:42;;;;;;;;;;;;;;;;;;5033798;28;20021;-46
2022/12/12 01:06:09;;;;;;;310.73;35.42;;;;;;;;;;5033704;28;19908;-49
2022/12/12 01:08:37;;;;;;;248.68;33.08;;;;;;;;;;5033513;28;20030;-47
2022/12/12 01:11:04;;;;;;;231.55;31.17;;;;;;;;;;5033371;28;20171;-46
2022/12/12 01:13:31;;;;;;;212.63;28.25;;;;;;;;;;5042832;28;20040;-47
2022/12/12 01:15:58;;;;;;;229.95;30.65;;;;;;;;;;5052803;28;20072;-47
2022/12/12 01:18:25;;;;;;;246.60;28.77;;;;;;;;;;5053274;28;20021;-48
2022/12/12 01:20:52;;;;;;;235.18;29.25;;;;;;;;;;5053273;28;20131;-46
2022/12/12 01:23:19;;;;;;;232.88;28.70;;;;;;;;;;5035384;28;20116;-46
2022/12/12 01:25:46;;;;;;;478.33;60.90;;;;;;;;;;5032935;28;20022;-48
2022/12/12 01:28:13;;;;;;;481.05;60.08;;;;;;;;;;5032889;28;20565;-46
2022/12/12 01:30:40;;;;;;;396.40;47.00;;;;;;;;;;5045439;28;20018;-46
2022/12/12 01:33:07;;;;;;;418.90;50.17;;;;;;;;;;5039078;28;20049;-47
2022/12/12 01:35:35;;;;;;;414.75;51.78;;;;;;;;;;5025232;28;20079;-46
2022/12/12 01:38:02;;;;;;;374.73;43.97;;;;;;;;;;5049783;28;20031;-47
2022/12/12 01:40:30;;;;;;;346.08;41.00;;;;;;;;;;5035705;28;20025;-47
2022/12/12 01:42:57;;;;;;;343.10;41.70;;;;;;;;;;5032631;28;20061;-47
2022/12/12 01:45:53;;;;;;;325.38;39.08;;;;;;;;;;5032887;28;20399;-46
2022/12/12 01:48:21;;;;;;;309.52;38.85;;;;;;;;;;5019913;28;20096;-48
2022/12/12 01:50:48;;;;;;;329.25;39.55;;;;;;;;;;5014623;28;20037;-46
2022/12/12 01:53:18;;;;;;;375.52;43.88;;;;;;;;;;5032702;28;20047;-46
2022/12/12 01:55:47;;;;;;;405.45;49.10;;;;;;;;;;5032298;28;20041;-47
2022/12/12 01:58:14;;;;;;;502.75;53.25;;;;;;;;;;5032439;28;20620;-49
2022/12/12 02:00:41;;;;;;;447.10;59.40;;;;;;;;;;5027163;28;20705;-49
2022/12/12 02:03:08;;;;;;;468.90;57.15;;;;;;;;;;5050712;28;20032;-45
2022/12/12 02:06:04;;;;;;;575.90;70.05;;;;;;;;;;5042268;28;20021;-47
2022/12/12 02:08:32;;;;;;;528.95;65.30;;;;;;;;;;5020850;28;20041;-45
2022/12/12 02:11:11;;;;;;;478.98;56.63;;;;;;;;;;5042510;28;20025;-46
2022/12/12 02:13:39;;;;;;;457.77;59.85;;;;;;;;;;5052440;28;20064;-46
2022/12/12 02:16:21;;;;;;;470.02;61.08;;;;;;;;;;5052551;28;20032;-48
2022/12/12 02:19:01;;;;;;;380.90;50.80;;;;;;;;;;5052671;28;20044;-46
2022/12/12 02:21:46;;;;;;;341.70;46.50;;;;;;;;;;5052606;28;20025;-46
2022/12/12 02:24:13;;;;;;;368.55;50.47;;;;;;;;;;5040551;28;20018;-48
2022/12/12 02:27:05;;;;;;;345.92;48.85;;;;;;;;;;5022053;28;20068;-48
2022/12/12 02:29:45;;;;;;;362.38;48.45;;;;;;;;;;5033927;28;20044;-46
2022/12/12 02:32:25;;;;;;;336.48;46.63;;;;;;;;;;5031885;28;20068;-48
2022/12/12 02:35:03;;;;;;;379.35;48.25;;;;;;;;;;5032223;28;20060;-46
2022/12/12 02:37:41;;;;;;;336.20;46.78;;;;;;;;;;5032259;28;20072;-46
2022/12/12 02:40:15;;;;;;;314.75;43.25;;;;;;;;;;5032079;28;20393;-48
2022/12/12 02:42:45;;;;;;;263.90;39.28;;;;;;;;;;5032243;28;20029;-46
2022/12/12 02:45:24;;;;;;;263.65;39.80;;;;;;;;;;5031948;28;20048;-46
2022/12/12 02:47:54;;;;;;;254.60;39.75;;;;;;;;;;5032246;28;20021;-49
2022/12/12 02:50:23;;;;;;;247.60;34.75;;;;;;;;;;5032324;28;20475;-51
2022/12/12 02:52:50;;;;;;;236.63;33.40;;;;;;;;;;5032254;28;20051;-47
2022/12/12 02:55:18;;;;;;;189.52;29.20;;;;;;;;;;5032008;28;20160;-47
2022/12/12 02:57:45;;;;;;;175.50;30.52;;;;;;;;;;5032283;28;20021;-49
2022/12/12 03:00:14;;;;;;;176.23;30.55;;;;;;;;;;5014433;28;20399;-46
2022/12/12 03:09:07;;;;;;;184.23;31.73;;;;;;;;;;5032186;28;20458;-46
2022/12/12 03:11:36;;;;;;;200.90;33.00;;;;;;;;;;5029411;28;20044;-46
2022/12/12 03:14:07;;;;;;;183.60;30.38;;;;;;;;;;5031715;28;20033;-47
2022/12/12 03:20:08;;;;;;;177.80;28.60;;;;;;;;;;5033551;28;20378;-46
2022/12/12 03:25:54;;;;;;;147.85;28.23;;;;;;;;;;5032862;28;20033;-48
2022/12/12 03:28:30;;;;;;;166.73;29.55;;;;;;;;;;5013807;28;20049;-48
2022/12/12 03:30:58;;;;;;;204.18;30.48;;;;;;;;;;5014123;28;20034;-47
2022/12/12 03:33:27;;;;;;;146.82;27.42;;;;;;;;;;5031850;28;20108;-47
2022/12/12 03:36:00;;;;;;;150.52;26.02;;;;;;;;;;5031576;28;20029;-45
2022/12/12 03:38:30;;;;;;;146.50;27.42;;;;;;;;;;5031761;28;20083;-46
2022/12/12 03:40:58;;;;;;;135.18;25.65;;;;;;;;;;5031801;28;20495;-47
2022/12/12 03:43:30;;;;;;;141.77;25.60;;;;;;;;;;5031492;28;20045;-46
2022/12/12 03:46:03;;;;;;;128.52;24.40;;;;;;;;;;5031688;28;20033;-46
2022/12/12 03:48:31;;;;;;;113.50;23.38;;;;;;;;;;5031685;28;20029;-46
2022/12/12 03:51:30;;;;;;;116.60;21.05;;;;;;;;;;5031595;28;20072;-46
2022/12/12 03:54:08;;;;;;;110.45;22.65;;;;;;;;;;4988393;28;20038;-46
2022/12/12 03:56:43;;;;;;;130.48;23.95;;;;;;;;;;5031431;28;20133;-46
2022/12/12 03:59:12;;;;;;;121.20;23.27;;;;;;;;;;5031494;28;20372;-45
2022/12/12 04:01:51;;;;;;;112.10;21.67;;;;;;;;;;5031652;28;20037;-48
2022/12/12 04:04:31;;;;;;;108.78;21.60;;;;;;;;;;5031483;28;20029;-46
2022/12/12 04:07:01;;;;;;;114.72;20.75;;;;;;;;;;5031547;28;20030;-46
2022/12/12 04:15:27;;;;;;;109.10;21.77;;;;;;;;;;5031491;28;20152;-46
2022/12/12 04:18:06;;;;;;;107.72;21.52;;;;;;;;;;5031432;28;20057;-46
2022/12/12 04:23:32;;;;;;;113.93;19.52;;;;;;;;;;5031369;28;20549;-46
2022/12/12 04:29:01;;;;;;;123.55;20.52;;;;;;;;;;5034947;28;20099;-46
2022/12/12 04:31:29;;;;;;;116.57;20.75;;;;;;;;;;5034794;28;20029;-46
2022/12/12 04:34:01;;;;;;;101.95;19.67;;;;;;;;;;5034882;28;20041;-46
2022/12/12 04:36:29;;;;;;;116.63;19.80;;;;;;;;;;5034802;28;20152;-46
2022/12/12 04:38:56;;;;;;;111.25;18.23;;;;;;;;;;5034832;28;20029;-46
2022/12/12 04:41:25;;;;;;;104.97;17.95;;;;;;;;;;5034709;28;20029;-46
2022/12/12 04:43:54;;;;;;;84.45;15.55;;;;;;;;;;5034530;28;20399;-46
2022/12/12 04:46:24;;;;;;;76.13;15.75;;;;;;;;;;5034687;28;20029;-46
2022/12/12 04:48:50;;;;;;;82.00;17.17;;;;;;;;;;5034593;28;20512;-47
2022/12/12 04:51:19;;;;;;;80.68;16.88;;;;;;;;;;5034446;28;20021;-46
2022/12/12 04:53:52;;;;;;;73.93;15.27;;;;;;;;;;5034355;28;20187;-46
2022/12/12 04:56:21;;;;;;;63.22;13.75;;;;;;;;;;5034298;28;20038;-46
2022/12/12 04:58:48;;;;;;;75.05;13.45;;;;;;;;;;5034419;28;20021;-47
2022/12/12 05:01:23;;;;;;;57.78;12.50;;;;;;;;;;5034277;28;20032;-46
2022/12/12 05:03:55;;;;;;;74.13;13.48;;;;;;;;;;5034205;28;20052;-46
2022/12/12 05:06:21;;;;;;;;;;;;;;;;;;5034587;28;20037;-46
2022/12/12 05:08:51;;;;;;;53.42;11.43;;;;;;;;;;5034272;28;19917;-46
2022/12/12 05:11:20;;;;;;;47.65;11.57;;;;;;;;;;5016265;28;20025;-46
2022/12/12 05:13:48;;;;;;;62.55;11.25;;;;;;;;;;5033930;28;20068;-46
2022/12/12 05:16:24;;;;;;;46.40;9.50;;;;;;;;;;5034043;28;20056;-45
2022/12/12 05:18:51;;;;;;;48.60;10.68;;;;;;;;;;5034094;28;20529;-46
2022/12/12 05:21:19;;;;;;;46.45;9.07;;;;;;;;;;5033930;28;20052;-45
2022/12/12 05:23:46;;;;;;;45.35;8.60;;;;;;;;;;5033333;28;20037;-46
2022/12/12 05:26:19;;;;;;;39.78;7.53;;;;;;;;;;5033693;28;20025;-45
2022/12/12 05:28:46;;;;;;;38.63;7.53;;;;;;;;;;5033845;28;20083;-45
2022/12/12 05:31:13;;;;;;;35.75;7.32;;;;;;;;;;5033827;28;20033;-46
2022/12/12 05:33:40;;;;;;;34.05;6.72;;;;;;;;;;5033628;28;20033;-45
2022/12/12 05:36:07;;;;;;;37.70;7.88;;;;;;;;;;5033510;28;20092;-47
2022/12/12 05:38:34;;;;;;;38.38;7.03;;;;;;;;;;5033479;28;20395;-46
2022/12/12 05:41:02;;;;;;;31.92;7.20;;;;;;;;;;5033591;28;20084;-45
2022/12/12 05:43:29;;;;;;;38.90;7.43;;;;;;;;;;5033508;28;20545;-46
2022/12/12 05:45:56;;;;;;;28.38;6.72;;;;;;;;;;5033441;28;20067;-46
2022/12/12 05:48:23;;;;;;;30.20;6.43;;;;;;;;;;5033384;28;20041;-47
2022/12/12 05:50:50;;;;;;;26.40;6.10;;;;;;;;;;5033236;28;20036;-46
2022/12/12 05:53:17;;;;;;;29.40;6.05;;;;;;;;;;5033221;28;20395;-46
2022/12/12 05:55:44;;;;;;;27.65;5.97;;;;;;;;;;5033263;28;20545;-46
2022/12/12 05:58:11;;;;;;;27.92;5.95;;;;;;;;;;5033322;28;20029;-45
2022/12/12 06:00:38;;;;;;;26.00;5.45;;;;;;;;;;5033081;28;20500;-46
2022/12/12 06:03:05;;;;;;;20.83;5.22;;;;;;;;;;5029315;28;20391;-46
2022/12/12 06:05:32;;;;;;;20.45;5.47;;;;;;;;;;5033050;28;20037;-46
2022/12/12 06:07:59;;;;;;;23.50;4.88;;;;;;;;;;5033093;28;20395;-46
2022/12/12 06:10:26;;;;;;;34.92;6.50;;;;;;;;;;5033040;28;20035;-49
2022/12/12 06:12:52;;;;;;;30.13;5.50;;;;;;;;;;5033016;28;20110;-48
2022/12/12 06:15:19;;;;;;;27.27;5.03;;;;;;;;;;5014938;28;20503;-45
2022/12/12 06:17:46;;;;;;;19.95;4.80;;;;;;;;;;5032961;28;20032;-45
2022/12/12 06:20:13;;;;;;;20.92;5.10;;;;;;;;;;5032909;28;20120;-50
2022/12/12 06:22:41;;;;;;;19.58;4.07;;;;;;;;;;5032803;28;20036;-46
2022/12/12 06:25:08;;;;;;;22.02;4.50;;;;;;;;;;5032579;28;20060;-45
2022/12/12 06:27:35;;;;;;;20.30;4.10;;;;;;;;;;5032585;28;20430;-45
2022/12/12 06:30:03;;;;;;;17.83;3.38;;;;;;;;;;5032722;28;20024;-50
2022/12/12 06:32:30;;;;;;;17.35;3.47;;;;;;;;;;5032696;28;20053;-46
2022/12/12 06:34:56;;;;;;;21.65;3.92;;;;;;;;;;5032404;28;20120;-48
2022/12/12 06:37:24;;;;;;;16.45;3.20;;;;;;;;;;5032567;28;20036;-46
2022/12/12 06:39:51;;;;;;;23.88;3.65;;;;;;;;;;5032540;28;20120;-47
2022/12/12 06:42:18;;;;;;;18.13;3.92;;;;;;;;;;5032435;28;20053;-46
2022/12/12 06:44:44;;;;;;;29.83;4.63;;;;;;;;;;5032390;28;20029;-47
2022/12/12 06:47:11;;;;;;;26.20;4.70;;;;;;;;;;5014005;28;20033;-46
2022/12/12 06:49:38;;;;;;;12.27;3.58;;;;;;;;;;5032387;28;20690;-47
2022/12/12 06:52:05;;;;;;;16.80;3.72;;;;;;;;;;5032253;28;20022;-45
2022/12/12 06:54:32;;;;;;;16.00;3.38;;;;;;;;;;5032176;28;20036;-46
2022/12/12 06:56:59;;;;;;;15.98;3.47;;;;;;;;;;5032289;28;20044;-45
2022/12/12 06:59:28;;;;;;;15.13;3.42;;;;;;;;;;5032228;28;20029;-46
2022/12/12 07:01:56;;;;;;;17.83;4.03;;;;;;;;;;5032065;28;20044;-48
2022/12/12 07:04:23;;;;;;;19.40;3.35;;;;;;;;;;5031901;28;20041;-45
2022/12/12 07:06:50;;;;;;;12.13;3.58;;;;;;;;;;5032131;28;20128;-48
2022/12/12 07:09:18;;;;;;;15.25;3.15;;;;;;;;;;5032133;28;20387;-46
2022/12/12 07:11:45;;;;;;;13.95;3.40;;;;;;;;;;5031935;28;20037;-48
2022/12/12 07:14:12;;;;;;;14.50;3.63;;;;;;;;;;5031945;28;20017;-47
2022/12/12 07:16:39;;;;;;;19.80;3.67;;;;;;;;;;5032006;28;20037;-46
2022/12/12 07:19:06;;;;;;;14.02;3.10;;;;;;;;;;5032020;28;20025;-46
2022/12/12 07:21:33;;;;;;;11.38;3.00;;;;;;;;;;5031939;28;20041;-46
2022/12/12 07:24:00;;;;;;;14.68;3.28;;;;;;;;;;5031822;28;20550;-46
2022/12/12 07:26:27;;;;;;;13.93;3.00;;;;;;;;;;5031693;28;20476;-47
2022/12/12 07:28:54;;;;;;;24.83;3.88;;;;;;;;;;5031694;28;20467;-45
2022/12/12 07:31:24;;;;;;;15.00;2.92;;;;;;;;;;5031842;28;20030;-46
2022/12/12 07:33:53;;;;;;;10.93;2.95;;;;;;;;;;5031660;28;20391;-48
2022/12/12 07:36:21;;;;;;;11.55;2.88;;;;;;;;;;5031685;28;20037;-45
2022/12/12 07:38:48;;;;;;;16.05;3.05;;;;;;;;;;5031881;28;20029;-46
2022/12/12 07:41:17;;;;;;;13.18;2.53;;;;;;;;;;5031850;28;20025;-47
2022/12/12 07:43:45;;;;;;;11.27;2.97;;;;;;;;;;5031731;28;20075;-45
2022/12/12 07:46:14;;;;;;;13.25;3.10;;;;;;;;;;5031784;28;20036;-47
2022/12/12 07:48:41;;;;;;;15.18;3.17;;;;;;;;;;5031792;28;20071;-47
2022/12/12 07:51:08;;;;;;;12.50;2.97;;;;;;;;;;5031742;28;20112;-48
2022/12/12 07:53:35;;;;;;;9.85;2.25;;;;;;;;;;5031581;28;20677;-47
2022/12/12 07:56:05;;;;;;;11.65;2.65;;;;;;;;;;5031626;28;20064;-47
2022/12/12 07:58:32;;;;;;;12.40;3.25;;;;;;;;;;5192195;23;20047;-53
2022/12/12 08:00:59;;;;;;;13.15;2.50;;;;;;;;;;5074143;28;20044;-52
2022/12/12 08:03:26;;;;;;;14.13;2.78;;;;;;;;;;5075509;28;20458;-52
2022/12/12 08:05:53;;;;;;;8.85;2.78;;;;;;;;;;5057099;28;20399;-53
2022/12/12 08:08:20;;;;;;;11.85;2.40;;;;;;;;;;5075247;28;20420;-54
2022/12/12 08:10:47;;;;;;;10.98;2.40;;;;;;;;;;5075303;28;20066;-56
2022/12/12 08:13:14;;;;;;;11.50;2.72;;;;;;;;;;5075249;28;20085;-53
2022/12/12 08:15:42;;;;;;;17.05;3.03;;;;;;;;;;5075121;28;20081;-55
2022/12/12 08:18:09;;;;;;;10.18;2.50;;;;;;;;;;5074739;28;20054;-49
2022/12/12 08:20:38;;;;;;;12.55;2.60;;;;;;;;;;5075094;28;20052;-49
2022/12/12 08:23:05;;;;;;;9.50;2.22;;;;;;;;;;5074973;28;20025;-52
2022/12/12 08:25:32;;;;;;;9.45;2.50;;;;;;;;;;5074984;28;20094;-48
2022/12/12 08:27:59;;;;;;;11.52;2.67;;;;;;;;;;5074886;28;20025;-53
2022/12/12 08:30:26;;;;;;;16.42;2.72;;;;;;;;;;5074891;28;20017;-54
2022/12/12 08:32:53;;;;;;;23.17;2.70;;;;;;;;;;5074864;28;20108;-53
2022/12/12 08:35:20;;;;;;;15.10;2.80;;;;;;;;;;5074722;28;20413;-50
2022/12/12 08:37:47;;;;;;;15.63;2.30;;;;;;;;;;5074454;28;20039;-56
2022/12/12 08:40:14;;;;;;;15.30;2.58;;;;;;;;;;5056772;28;20040;-55
2022/12/12 08:42:41;;;;;;;20.88;2.75;;;;;;;;;;5074677;28;20020;-56
2022/12/12 08:45:08;;;;;;;17.02;2.63;;;;;;;;;;5074520;28;20032;-56
2022/12/12 08:47:35;;;;;;;11.77;2.50;;;;;;;;;;5074398;28;20024;-56
2022/12/12 08:50:02;;;;;;;17.70;2.42;;;;;;;;;;5074564;28;20070;-55
2022/12/12 08:52:28;;;;;;;13.30;2.58;;;;;;;;;;5074567;28;20033;-56
2022/12/12 08:54:55;;;;;;;20.23;2.85;;;;;;;;;;5074400;28;20020;-56
2022/12/12 08:57:22;;;;;;;16.50;2.42;;;;;;;;;;5074330;28;20154;-56
2022/12/12 08:59:49;;;;;;;17.25;2.63;;;;;;;;;;5074119;28;20067;-55
2022/12/12 09:02:16;;;;;;;15.93;2.95;;;;;;;;;;5074371;28;20025;-55
2022/12/12 09:04:43;;;;;;;19.83;2.63;;;;;;;;;;5074145;28;20033;-53
2022/12/12 09:07:10;;;;;;;35.45;3.55;;;;;;;;;;5074178;28;20031;-55
2022/12/12 09:09:37;;;;;;;13.52;2.90;;;;;;;;;;5074022;28;20021;-56
2022/12/12 09:12:04;;;;;;;11.52;2.83;;;;;;;;;;5073745;28;20093;-57
2022/12/12 09:14:32;;;;;;;57.63;6.38;;;;;;;;;;5074092;28;20078;-54
2022/12/12 09:16:59;;;;;;;26.90;3.97;;;;;;;;;;5074036;28;20089;-55
2022/12/12 09:19:26;;;;;;;22.50;3.28;;;;;;;;;;5073800;28;20020;-54
2022/12/12 09:21:53;;;;;;;15.85;2.75;;;;;;;;;;5073954;28;20021;-53
2022/12/12 09:24:22;;;;;;;25.52;3.45;;;;;;;;;;5073906;28;20420;-52
2022/12/12 09:26:49;;;;;;;23.52;4.15;;;;;;;;;;5073605;28;20306;-55
2022/12/12 09:29:17;;;;;;;25.92;3.92;;;;;;;;;;5073800;28;20039;-55
2022/12/12 09:31:44;;;;;;;27.15;4.70;;;;;;;;;;5073730;28;20017;-55
2022/12/12 09:34:10;;;;;;;28.85;4.85;;;;;;;;;;5073757;28;20052;-54
2022/12/12 09:36:37;;;;;;;22.20;3.88;;;;;;;;;;5073640;28;20086;-52
2022/12/12 09:39:05;;;;;;;26.60;3.97;;;;;;;;;;5073315;28;20025;-48
2022/12/12 09:41:32;;;;;;;25.05;3.35;;;;;;;;;;5073503;28;20024;-52
2022/12/12 09:44:05;;;;;;;24.83;3.00;;;;;;;;;;5072953;28;20020;-53
2022/12/12 09:46:34;;;;;;;53.40;5.13;;;;;;;;;;5073448;28;20016;-48
2022/12/12 09:49:13;;;;;;;23.35;2.80;;;;;;;;;;5073261;28;20023;-51
2022/12/12 09:51:41;;;;;;;30.58;3.30;;;;;;;;;;5055319;28;20771;-50
2022/12/12 09:54:12;;;;;;;31.42;3.25;;;;;;;;;;5073154;28;20032;-49
2022/12/12 09:56:55;;;;;;;33.88;3.33;;;;;;;;;;5073092;28;20051;-49
2022/12/12 09:59:44;;;;;;;41.40;3.63;;;;;;;;;;5072886;28;20120;-49
2022/12/12 10:02:43;;;;;;;32.60;3.70;;;;;;;;;;5073088;28;20035;-49
2022/12/12 10:05:22;;;;;;;40.70;4.15;;;;;;;;;;5029042;28;20124;-51
2022/12/12 10:07:55;;;;;;;30.25;4.05;;;;;;;;;;5072923;28;20291;-49
2022/12/12 10:10:34;;;;;;;38.00;3.20;;;;;;;;;;5072957;28;20021;-50
2022/12/12 10:13:02;;;;;;;57.08;4.85;;;;;;;;;;5072905;28;20047;-51
2022/12/12 10:15:40;;;;;;;26.95;2.88;;;;;;;;;;5072782;28;20150;-52
2022/12/12 10:18:14;;;;;;;27.95;3.83;;;;;;;;;;5072594;28;20032;-48
2022/12/12 10:20:47;;;;;;;18.23;3.08;;;;;;;;;;5072565;28;20094;-49
2022/12/12 10:23:14;;;;;;;12.95;2.20;;;;;;;;;;5071925;28;20016;-51
2022/12/12 10:25:52;;;;;;;27.60;2.83;;;;;;;;;;5072592;28;20043;-51
2022/12/12 10:28:20;;;;;;;19.77;1.50;;;;;;;;;;5071717;28;20086;-52
2022/12/12 10:31:05;;;;;;;14.57;1.73;;;;;;;;;;5072359;28;20081;-54
2022/12/12 10:33:50;;;;;;;19.73;2.03;;;;;;;;;;5072177;28;20036;-52
2022/12/12 10:36:31;;;;;;;53.03;5.10;;;;;;;;;;5072169;28;20037;-49
2022/12/12 10:39:08;;;;;;;34.92;3.50;;;;;;;;;;5072582;28;20032;-51
2022/12/12 10:41:40;;;;;;;39.72;4.18;;;;;;;;;;5086339;28;20482;-52
2022/12/12 10:44:06;;;;;;;;;;;;;;;;;;5081357;28;20553;-53
2022/12/12 10:46:36;;;;;;;44.22;3.13;;;;;;;;;;5078128;28;19905;-51
2022/12/12 10:49:13;;;;;;;20.67;3.25;;;;;;;;;;5081294;28;20016;-55
2022/12/12 10:51:40;;;;;;;81.93;6.63;;;;;;;;;;5072953;28;20071;-53
2022/12/12 10:54:14;;;;;;;40.08;4.85;;;;;;;;;;5079862;28;20024;-54
2022/12/12 10:57:01;;;;;;;36.78;4.30;;;;;;;;;;5072315;28;20028;-51
2022/12/12 10:59:28;;;;;;;48.92;4.03;;;;;;;;;;5081562;28;20598;-52
2022/12/12 11:01:59;;;;;;;26.00;2.75;;;;;;;;;;5078188;28;20058;-48
2022/12/12 11:04:27;;;;;;;23.40;3.05;;;;;;;;;;5080979;28;20133;-54
2022/12/12 11:06:55;;;;;;;40.40;3.55;;;;;;;;;;5082392;28;20019;-54
2022/12/12 11:09:24;;;;;;;45.28;4.55;;;;;;;;;;5080960;28;20082;-54
2022/12/12 11:12:01;;;;;;;15.40;1.92;;;;;;;;;;5062973;28;20469;-52
2022/12/12 11:14:36;;;;;;;21.83;2.33;;;;;;;;;;5073291;28;20042;-53
2022/12/12 11:17:03;;;;;;;13.15;2.00;;;;;;;;;;5074046;28;20067;-52
2022/12/12 11:19:37;;;;;;;16.70;1.55;;;;;;;;;;5071572;28;20035;-52
2022/12/12 11:22:04;;;;;;;16.48;2.45;;;;;;;;;;5053830;28;20025;-49
2022/12/12 11:24:32;;;;;;;41.35;4.80;;;;;;;;;;5071886;28;20048;-51
2022/12/12 11:27:01;;;;;;;21.15;2.40;;;;;;;;;;5071867;28;20486;-48
2022/12/12 11:29:36;;;;;;;40.95;3.53;;;;;;;;;;5071793;28;20029;-50
2022/12/12 11:32:04;;;;;;;24.20;2.55;;;;;;;;;;5071746;28;20074;-52
2022/12/12 11:34:32;;;;;;;25.17;2.10;;;;;;;;;;5073859;28;20029;-54
2022/12/12 11:36:59;;;;;;;19.13;2.10;;;;;;;;;;5075159;28;20202;-54
2022/12/12 11:39:35;;;;;;;17.85;1.80;;;;;;;;;;5075156;28;20059;-51
2022/12/12 11:42:16;;;;;;;56.08;6.57;;;;;;;;;;5075250;28;20025;-53
2022/12/12 11:44:44;;;;;;;24.20;2.95;;;;;;;;;;5073797;28;20505;-56
2022/12/12 11:47:20;;;;;;;11.98;1.42;;;;;;;;;;5075255;28;20021;-49
2022/12/12 11:49:48;;;;;;;20.60;2.15;;;;;;;;;;5074842;28;20032;-52
2022/12/12 11:52:45;;;;;;;33.13;1.80;;;;;;;;;;5075576;28;20025;-55
2022/12/12 11:55:16;;;;;;;41.22;3.00;;;;;;;;;;5058687;28;20048;-51
2022/12/12 11:57:43;;;;;;;28.98;2.47;;;;;;;;;;5075242;28;20028;-51
2022/12/12 12:00:35;;;;;;;28.00;3.17;;;;;;;;;;5075452;28;20033;-54
2022/12/12 12:03:21;;;;;;;18.17;2.83;;;;;;;;;;5072048;28;20040;-54
2022/12/12 12:05:48;;;;;;;38.38;2.50;;;;;;;;;;5075344;28;20028;-52
2022/12/12 12:08:23;;;;;;;24.17;2.45;;;;;;;;;;5075234;28;20025;-48
2022/12/12 12:10:50;;;;;;;59.35;5.43;;;;;;;;;;5075019;28;20031;-53
2022/12/12 12:13:20;;;;;;;10.50;1.38;;;;;;;;;;5075197;28;20024;-49
2022/12/12 12:15:58;;;;;;;13.40;1.73;;;;;;;;;;5075064;28;20021;-49
2022/12/12 12:18:33;;;;;;;15.05;1.15;;;;;;;;;;5075041;28;20049;-53
2022/12/12 12:21:00;;;;;;;18.50;1.80;;;;;;;;;;5074680;28;20028;-52
2022/12/12 12:23:39;;;;;;;26.90;2.30;;;;;;;;;;5074952;28;20020;-48
2022/12/12 12:26:09;;;;;;;69.53;5.10;;;;;;;;;;5074830;28;20020;-55
2022/12/12 12:28:54;;;;;;;37.78;2.92;;;;;;;;;;5074649;28;20028;-56
2022/12/12 12:31:33;;;;;;;21.00;1.95;;;;;;;;;;5074558;28;20035;-54
2022/12/12 12:34:18;;;;;;;20.92;1.85;;;;;;;;;;5074781;28;20040;-53
2022/12/12 12:36:46;;;;;;;26.45;2.22;;;;;;;;;;5074613;28;20060;-55
2022/12/12 12:39:15;;;;;;;16.83;1.83;;;;;;;;;;5074158;28;20031;-54
2022/12/12 12:41:45;;;;;;;33.35;3.70;;;;;;;;;;5074516;28;20025;-52
2022/12/12 12:44:28;;;;;;;20.10;2.40;;;;;;;;;;5072893;28;20037;-55
2022/12/12 12:47:04;;;;;;;39.05;3.72;;;;;;;;;;5072611;28;20021;-54
2022/12/12 12:49:38;;;;;;;55.08;4.47;;;;;;;;;;5074190;28;20385;-53
2022/12/12 12:52:05;;;;;;;44.42;3.67;;;;;;;;;;5073491;28;20032;-56
2022/12/12 12:54:38;;;;;;;52.65;3.97;;;;;;;;;;5073593;28;20099;-49
2022/12/12 12:57:08;;;;;;;35.65;3.25;;;;;;;;;;5073752;28;20805;-53
2022/12/12 12:59:47;;;;;;;40.45;3.38;;;;;;;;;;5073430;28;20094;-58
2022/12/12 13:02:22;;;;;;;29.00;3.60;;;;;;;;;;5073722;28;20366;-52
2022/12/12 13:04:58;;;;;;;37.30;3.08;;;;;;;;;;5073790;28;20017;-52
2022/12/12 13:07:40;;;;;;;34.42;3.72;;;;;;;;;;5073209;28;20468;-55
2022/12/12 13:10:09;;;;;;;43.03;3.73;;;;;;;;;;5073714;28;20457;-52
2022/12/12 13:12:39;;;;;;;42.80;3.40;;;;;;;;;;5073376;28;20520;-51
2022/12/12 13:15:30;;;;;;;69.32;4.60;;;;;;;;;;5073035;28;20414;-51
2022/12/12 13:17:56;;;;;;;122.90;7.38;;;;;;;;;;5036367;28;20052;-50
2022/12/12 13:20:24;;;;;;;39.40;3.40;;;;;;;;;;5073590;28;20428;-48
2022/12/12 13:23:14;;;;;;;55.95;4.95;;;;;;;;;;5055100;28;20035;-49
2022/12/12 13:26:01;;;;;;;90.97;6.90;;;;;;;;;;5063197;28;20048;-49
2022/12/12 13:28:51;;;;;;;52.38;4.93;;;;;;;;;;5073203;28;20024;-52
2022/12/12 13:31:30;;;;;;;56.63;4.80;;;;;;;;;;5063061;28;20043;-49
2022/12/12 13:34:06;;;;;;;51.67;4.53;;;;;;;;;;5073088;28;20389;-50
2022/12/12 13:36:36;;;;;;;78.47;6.25;;;;;;;;;;5073165;28;20024;-48
2022/12/12 13:39:04;;;;;;;115.78;9.50;;;;;;;;;;5072927;28;20105;-47
2022/12/12 13:41:49;;;;;;;177.57;14.50;;;;;;;;;;5072890;28;20401;-48
2022/12/12 13:44:34;;;;;;;140.55;11.35;;;;;;;;;;5072829;28;20032;-48
2022/12/12 13:47:02;;;;;;;86.82;7.88;;;;;;;;;;5072919;28;20036;-52
2022/12/12 13:49:40;;;;;;;105.70;8.55;;;;;;;;;;5072676;28;20035;-51
2022/12/12 13:52:24;;;;;;;94.32;9.25;;;;;;;;;;5072768;28;20056;-50
2022/12/12 13:54:53;;;;;;;80.25;7.63;;;;;;;;;;5072670;28;20052;-47
2022/12/12 13:57:22;;;;;;;78.10;7.03;;;;;;;;;;5072750;28;20112;-47
2022/12/12 14:00:09;;;;;;;54.55;5.32;;;;;;;;;;5071850;28;20044;-51
2022/12/12 14:02:37;;;;;;;78.38;7.00;;;;;;;;;;5058751;28;20103;-50
2022/12/12 14:05:15;;;;;;;89.18;7.90;;;;;;;;;;5072632;28;20029;-46
2022/12/12 14:07:49;;;;;;;82.68;8.15;;;;;;;;;;5072251;28;20116;-49
2022/12/12 14:10:36;;;;;;;61.17;6.63;;;;;;;;;;5072262;28;20474;-49
2022/12/12 14:13:21;;;;;;;53.50;4.63;;;;;;;;;;5072610;28;20081;-48
2022/12/12 14:15:50;;;;;;;33.70;3.33;;;;;;;;;;5071694;28;20405;-46
2022/12/12 14:18:21;;;;;;;35.03;3.40;;;;;;;;;;5069305;28;20458;-48
2022/12/12 14:21:14;;;;;;;52.60;5.30;;;;;;;;;;5072158;28;20086;-47
2022/12/12 14:23:45;;;;;;;39.95;3.47;;;;;;;;;;5051239;28;20036;-46
2022/12/12 14:26:38;;;;;;;50.00;4.38;;;;;;;;;;5071012;28;20032;-47
2022/12/12 14:29:17;;;;;;;48.85;4.70;;;;;;;;;;5041515;28;20036;-49
2022/12/12 14:31:47;;;;;;;50.38;4.95;;;;;;;;;;5071734;28;20455;-49
2022/12/12 14:34:26;;;;;;;54.47;4.95;;;;;;;;;;5071606;28;20035;-48
2022/12/12 14:36:59;;;;;;;40.10;3.92;;;;;;;;;;5071785;28;20043;-48
2022/12/12 14:39:50;;;;;;;47.47;4.15;;;;;;;;;;5071083;28;20107;-48
2022/12/12 14:42:40;;;;;;;54.92;4.25;;;;;;;;;;5034732;28;20036;-46
2022/12/12 14:45:25;;;;;;;40.38;4.28;;;;;;;;;;5033794;28;20033;-46
2022/12/12 14:48:18;;;;;;;70.53;5.60;;;;;;;;;;5068329;28;20509;-46
2022/12/12 14:50:47;;;;;;;86.85;7.68;;;;;;;;;;5068376;28;20052;-48
2022/12/12 14:53:22;;;;;;;139.15;14.95;;;;;;;;;;5071662;28;20035;-51
2022/12/12 14:56:00;;;;;;;79.20;7.70;;;;;;;;;;5072049;28;20028;-48
2022/12/12 14:58:32;;;;;;;70.68;7.55;;;;;;;;;;5069250;28;20037;-48
2022/12/12 15:01:00;;;;;;;51.38;4.50;;;;;;;;;;5071451;28;20159;-47
2022/12/12 15:03:37;;;;;;;42.58;5.10;;;;;;;;;;5071167;28;20103;-47
2022/12/12 15:06:22;;;;;;;40.50;4.32;;;;;;;;;;5070899;28;20600;-47
2022/12/12 15:08:50;;;;;;;35.63;3.40;;;;;;;;;;5070833;28;20032;-51
2022/12/12 15:11:20;;;;;;;41.55;4.32;;;;;;;;;;5070686;28;20110;-47
2022/12/12 15:14:05;;;;;;;31.63;3.42;;;;;;;;;;5071159;28;20024;-47